sensor_id;sensor_type;location;lat;lon;timestamp;pressure;altitude;pressure_sealevel;temperature;humidity
54459;BME280;40368;49.350;8.152;2022-09-17T00:00:00;998.3;;;17.68;46.4
54459;BME280;40368;49.350;8.152;2022-09-17T00:01:01;998.4;;;17.73;46.59
54459;BME280;40368;49.350;8.152;2022-09-17T00:02:00;998.4;;;17.71;45.87
54459;BME280;40368;49.350;8.152;2022-09-17T00:03:00;998.4;;;17.7;46.02
54459;BME280;40368;49.350;8.152;2022-09-17T00:04:00;998.4;;;17.68;46.28
54459;BME280;40368;49.350;8.152;2022-09-17T00:05:00;998.4;;;17.7;46.65
54459;BME280;40368;49.350;8.152;2022-09-17T00:06:01;998.4;;;17.76;46.79
54459;BME280;40368;49.350;8.152;2022-09-17T00:07:00;998.4;;;17.81;46.44
54459;BME280;40368;49.350;8.152;2022-09-17T00:08:01;998.4;;;17.87;45.75
54459;BME280;40368;49.350;8.152;2022-09-17T00:09:01;998.5;;;17.87;46.22
54459;BME280;40368;49.350;8.152;2022-09-17T00:10:00;998.5;;;17.94;45.74
54459;BME280;40368;49.350;8.152;2022-09-17T00:11:04;998.5;;;17.96;45.78
54459;BME280;40368;49.350;8.152;2022-09-17T00:12:01;998.4;;;17.95;45.76
54459;BME280;40368;49.350;8.152;2022-09-17T00:13:00;998.4;;;17.91;45.75
54459;BME280;40368;49.350;8.152;2022-09-17T00:14:01;998.5;;;17.9;45.6
54459;BME280;40368;49.350;8.152;2022-09-17T00:15:00;998.5;;;17.77;45.75
54459;BME280;40368;49.350;8.152;2022-09-17T00:16:00;998.5;;;17.64;46.3
54459;BME280;40368;49.350;8.152;2022-09-17T00:17:00;998.5;;;17.6;46.18
54459;BME280;40368;49.350;8.152;2022-09-17T00:18:00;998.5;;;17.59;46.25
54459;BME280;40368;49.350;8.152;2022-09-17T00:19:01;998.5;;;17.54;46.21
54459;BME280;40368;49.350;8.152;2022-09-17T00:20:01;998.5;;;17.53;46.35
54459;BME280;40368;49.350;8.152;2022-09-17T00:21:00;998.5;;;17.52;46.33
54459;BME280;40368;49.350;8.152;2022-09-17T00:22:00;998.4;;;17.5;46.41
54459;BME280;40368;49.350;8.152;2022-09-17T00:23:00;998.4;;;17.51;46.8
54459;BME280;40368;49.350;8.152;2022-09-17T00:24:02;998.4;;;17.57;46.25
54459;BME280;40368;49.350;8.152;2022-09-17T00:25:00;998.5;;;17.54;46.16
54459;BME280;40368;49.350;8.152;2022-09-17T00:26:03;998.5;;;17.53;46.64
54459;BME280;40368;49.350;8.152;2022-09-17T00:27:00;998.4;;;17.48;46.32
54459;BME280;40368;49.350;8.152;2022-09-17T00:28:00;998.4;;;17.48;46.58
54459;BME280;40368;49.350;8.152;2022-09-17T00:29:00;998.5;;;17.46;46.7
54459;BME280;40368;49.350;8.152;2022-09-17T00:30:00;998.4;;;17.49;46.56
54459;BME280;40368;49.350;8.152;2022-09-17T00:31:05;998.5;;;17.5;46.65
54459;BME280;40368;49.350;8.152;2022-09-17T00:32:00;998.5;;;17.5;46.44
54459;BME280;40368;49.350;8.152;2022-09-17T00:33:00;998.5;;;17.5;47.09
54459;BME280;40368;49.350;8.152;2022-09-17T00:34:01;998.4;;;17.48;46.67
54459;BME280;40368;49.350;8.152;2022-09-17T00:35:00;998.4;;;17.43;46.98
54459;BME280;40368;49.350;8.152;2022-09-17T00:36:01;998.4;;;17.49;46.79
54459;BME280;40368;49.350;8.152;2022-09-17T00:37:00;998.4;;;17.51;46.5
54459;BME280;40368;49.350;8.152;2022-09-17T00:38:00;998.4;;;17.49;46.6
54459;BME280;40368;49.350;8.152;2022-09-17T00:39:00;998.4;;;17.48;46.66
54459;BME280;40368;49.350;8.152;2022-09-17T00:40:00;998.4;;;17.45;47.05
54459;BME280;40368;49.350;8.152;2022-09-17T00:41:01;998.4;;;17.39;46.87
54459;BME280;40368;49.350;8.152;2022-09-17T00:43:00;998.4;;;17.36;46.77
54459;BME280;40368;49.350;8.152;2022-09-17T00:44:01;998.4;;;17.36;47.15
54459;BME280;40368;49.350;8.152;2022-09-17T00:45:00;998.4;;;17.31;47.15
54459;BME280;40368;49.350;8.152;2022-09-17T00:46:01;998.4;;;17.29;47.22
54459;BME280;40368;49.350;8.152;2022-09-17T00:47:00;998.5;;;17.32;47.09
54459;BME280;40368;49.350;8.152;2022-09-17T00:48:01;998.4;;;17.36;47.03
54459;BME280;40368;49.350;8.152;2022-09-17T00:49:02;998.4;;;17.46;47.15
54459;BME280;40368;49.350;8.152;2022-09-17T00:50:02;998.4;;;17.52;46.66
54459;BME280;40368;49.350;8.152;2022-09-17T00:51:00;998.4;;;17.46;46.85
54459;BME280;40368;49.350;8.152;2022-09-17T00:52:03;998.4;;;17.5;47.1
54459;BME280;40368;49.350;8.152;2022-09-17T00:53:02;998.4;;;17.54;46.85
54459;BME280;40368;49.350;8.152;2022-09-17T00:54:02;998.4;;;17.57;46.7
54459;BME280;40368;49.350;8.152;2022-09-17T00:55:03;998.5;;;17.64;46.4
54459;BME280;40368;49.350;8.152;2022-09-17T00:56:02;998.5;;;17.62;46.49
54459;BME280;40368;49.350;8.152;2022-09-17T00:57:00;998.5;;;17.61;46.35
54459;BME280;40368;49.350;8.152;2022-09-17T00:58:01;998.5;;;17.57;46.15
54459;BME280;40368;49.350;8.152;2022-09-17T00:59:01;998.5;;;17.53;46.38
54459;BME280;40368;49.350;8.152;2022-09-17T01:00:02;998.5;;;17.54;46.73
54459;BME280;40368;49.350;8.152;2022-09-17T01:01:00;998.5;;;17.52;46.84
54459;BME280;40368;49.350;8.152;2022-09-17T01:02:00;998.5;;;17.54;47.02
54459;BME280;40368;49.350;8.152;2022-09-17T01:03:00;998.5;;;17.58;46.51
54459;BME280;40368;49.350;8.152;2022-09-17T01:04:01;998.5;;;17.56;46.45
54459;BME280;40368;49.350;8.152;2022-09-17T01:05:00;998.5;;;17.56;46.6
54459;BME280;40368;49.350;8.152;2022-09-17T01:06:03;998.5;;;17.62;46.41
54459;BME280;40368;49.350;8.152;2022-09-17T01:07:02;998.5;;;17.59;46.12
54459;BME280;40368;49.350;8.152;2022-09-17T01:08:03;998.6;;;17.62;46.42
54459;BME280;40368;49.350;8.152;2022-09-17T01:09:05;998.6;;;17.61;46.74
54459;BME280;40368;49.350;8.152;2022-09-17T01:10:02;998.6;;;17.65;46.47
54459;BME280;40368;49.350;8.152;2022-09-17T01:11:37;998.6;;;17.7;46.8
54459;BME280;40368;49.350;8.152;2022-09-17T01:12:05;998.6;;;17.74;46.71
54459;BME280;40368;49.350;8.152;2022-09-17T01:13:04;998.6;;;17.78;46.13
54459;BME280;40368;49.350;8.152;2022-09-17T01:14:03;998.5;;;17.73;46.34
54459;BME280;40368;49.350;8.152;2022-09-17T01:15:04;998.6;;;17.7;46.22
54459;BME280;40368;49.350;8.152;2022-09-17T01:16:02;998.6;;;17.64;45.95
54459;BME280;40368;49.350;8.152;2022-09-17T01:17:10;998.6;;;17.57;46.02
54459;BME280;40368;49.350;8.152;2022-09-17T01:18:06;998.7;;;17.52;46.51
54459;BME280;40368;49.350;8.152;2022-09-17T01:19:04;998.6;;;17.54;46.63
54459;BME280;40368;49.350;8.152;2022-09-17T01:20:09;998.6;;;17.54;46.3
54459;BME280;40368;49.350;8.152;2022-09-17T01:21:24;998.6;;;17.49;47.29
54459;BME280;40368;49.350;8.152;2022-09-17T01:22:01;998.6;;;17.53;46.55
54459;BME280;40368;49.350;8.152;2022-09-17T01:23:07;998.6;;;17.52;46.47
54459;BME280;40368;49.350;8.152;2022-09-17T01:24:23;998.6;;;17.43;46.56
54459;BME280;40368;49.350;8.152;2022-09-17T01:25:07;998.7;;;17.44;46.72
54459;BME280;40368;49.350;8.152;2022-09-17T01:26:05;998.7;;;17.44;46.48
54459;BME280;40368;49.350;8.152;2022-09-17T01:28:02;998.7;;;17.45;46.62
54459;BME280;40368;49.350;8.152;2022-09-17T01:28:33;998.7;;;17.45;46.49
54459;BME280;40368;49.350;8.152;2022-09-17T01:29:02;998.7;;;17.42;46.39
54459;BME280;40368;49.350;8.152;2022-09-17T01:30:07;998.6;;;17.45;46.57
54459;BME280;40368;49.350;8.152;2022-09-17T01:31:02;998.7;;;17.53;46.85
54459;BME280;40368;49.350;8.152;2022-09-17T01:32:02;998.7;;;17.54;46.11
54459;BME280;40368;49.350;8.152;2022-09-17T01:33:02;998.7;;;17.54;46.28
54459;BME280;40368;49.350;8.152;2022-09-17T01:34:02;998.6;;;17.56;46.17
54459;BME280;40368;49.350;8.152;2022-09-17T01:35:02;998.7;;;17.57;46.79
54459;BME280;40368;49.350;8.152;2022-09-17T01:36:02;998.7;;;17.54;46.35
54459;BME280;40368;49.350;8.152;2022-09-17T01:37:01;998.7;;;17.52;46.36
54459;BME280;40368;49.350;8.152;2022-09-17T01:38:03;998.6;;;17.4;46.34
54459;BME280;40368;49.350;8.152;2022-09-17T01:39:02;998.6;;;17.39;46.58
54459;BME280;40368;49.350;8.152;2022-09-17T01:40:03;998.7;;;17.39;46.66
54459;BME280;40368;49.350;8.152;2022-09-17T01:41:02;998.7;;;17.41;47.09
54459;BME280;40368;49.350;8.152;2022-09-17T01:42:03;998.6;;;17.51;46.87
54459;BME280;40368;49.350;8.152;2022-09-17T01:43:02;998.7;;;17.48;46.44
54459;BME280;40368;49.350;8.152;2022-09-17T01:44:01;998.6;;;17.45;46.51
54459;BME280;40368;49.350;8.152;2022-09-17T01:45:02;998.6;;;17.44;46.41
54459;BME280;40368;49.350;8.152;2022-09-17T01:46:02;998.7;;;17.4;46.74
54459;BME280;40368;49.350;8.152;2022-09-17T01:47:02;998.6;;;17.37;46.48
54459;BME280;40368;49.350;8.152;2022-09-17T01:48:01;998.6;;;17.43;46.85
54459;BME280;40368;49.350;8.152;2022-09-17T01:49:01;998.6;;;17.42;46.69
54459;BME280;40368;49.350;8.152;2022-09-17T01:50:02;998.7;;;17.43;46.6
54459;BME280;40368;49.350;8.152;2022-09-17T01:51:03;998.7;;;17.45;46.67
54459;BME280;40368;49.350;8.152;2022-09-17T01:52:00;998.7;;;17.43;46.46
54459;BME280;40368;49.350;8.152;2022-09-17T01:53:00;998.6;;;17.37;46.91
54459;BME280;40368;49.350;8.152;2022-09-17T01:54:02;998.7;;;17.37;46.53
54459;BME280;40368;49.350;8.152;2022-09-17T01:55:01;998.6;;;17.35;46.58
54459;BME280;40368;49.350;8.152;2022-09-17T01:56:01;998.6;;;17.36;46.87
54459;BME280;40368;49.350;8.152;2022-09-17T01:57:02;998.6;;;17.35;46.71
54459;BME280;40368;49.350;8.152;2022-09-17T01:58:01;998.7;;;17.36;46.82
54459;BME280;40368;49.350;8.152;2022-09-17T01:59:02;998.7;;;17.37;46.68
54459;BME280;40368;49.350;8.152;2022-09-17T02:00:01;998.7;;;17.35;47.28
54459;BME280;40368;49.350;8.152;2022-09-17T02:01:01;998.7;;;17.39;47.1
54459;BME280;40368;49.350;8.152;2022-09-17T02:02:02;998.7;;;17.39;46.62
54459;BME280;40368;49.350;8.152;2022-09-17T02:03:01;998.7;;;17.37;46.46
54459;BME280;40368;49.350;8.152;2022-09-17T02:04:02;998.8;;;17.37;46.86
54459;BME280;40368;49.350;8.152;2022-09-17T02:05:02;998.8;;;17.4;46.45
54459;BME280;40368;49.350;8.152;2022-09-17T02:06:02;998.8;;;17.37;46.79
54459;BME280;40368;49.350;8.152;2022-09-17T02:07:01;998.9;;;17.29;46.95
54459;BME280;40368;49.350;8.152;2022-09-17T02:08:02;998.8;;;17.26;47.02
54459;BME280;40368;49.350;8.152;2022-09-17T02:09:01;998.9;;;17.26;46.78
54459;BME280;40368;49.350;8.152;2022-09-17T02:10:02;998.9;;;17.29;47.18
54459;BME280;40368;49.350;8.152;2022-09-17T02:11:01;998.9;;;17.29;46.79
54459;BME280;40368;49.350;8.152;2022-09-17T02:12:01;998.9;;;17.29;47.05
54459;BME280;40368;49.350;8.152;2022-09-17T02:13:01;998.9;;;17.23;46.94
54459;BME280;40368;49.350;8.152;2022-09-17T02:14:01;998.9;;;17.2;47.17
54459;BME280;40368;49.350;8.152;2022-09-17T02:15:01;998.9;;;17.26;47.49
54459;BME280;40368;49.350;8.152;2022-09-17T02:16:01;998.9;;;17.31;47.37
54459;BME280;40368;49.350;8.152;2022-09-17T02:17:02;998.8;;;17.33;46.73
54459;BME280;40368;49.350;8.152;2022-09-17T02:18:02;998.8;;;17.33;46.56
54459;BME280;40368;49.350;8.152;2022-09-17T02:19:01;998.9;;;17.29;46.64
54459;BME280;40368;49.350;8.152;2022-09-17T02:20:01;998.8;;;17.27;47.09
54459;BME280;40368;49.350;8.152;2022-09-17T02:21:01;998.8;;;17.25;46.99
54459;BME280;40368;49.350;8.152;2022-09-17T02:22:01;998.8;;;17.27;47.12
54459;BME280;40368;49.350;8.152;2022-09-17T02:23:01;998.9;;;17.25;46.85
54459;BME280;40368;49.350;8.152;2022-09-17T02:24:02;998.9;;;17.2;47.3
54459;BME280;40368;49.350;8.152;2022-09-17T02:25:03;998.9;;;17.19;46.98
54459;BME280;40368;49.350;8.152;2022-09-17T02:26:02;998.9;;;17.14;47.55
54459;BME280;40368;49.350;8.152;2022-09-17T02:27:02;998.9;;;17.15;47.17
54459;BME280;40368;49.350;8.152;2022-09-17T02:28:01;999;;;17.1;47.32
54459;BME280;40368;49.350;8.152;2022-09-17T02:29:01;998.9;;;17.04;47.47
54459;BME280;40368;49.350;8.152;2022-09-17T02:30:00;998.9;;;17.01;47.83
54459;BME280;40368;49.350;8.152;2022-09-17T02:31:00;998.9;;;17.06;47.33
54459;BME280;40368;49.350;8.152;2022-09-17T02:32:00;998.9;;;17.11;47.81
54459;BME280;40368;49.350;8.152;2022-09-17T02:33:00;998.9;;;17.11;47.19
54459;BME280;40368;49.350;8.152;2022-09-17T02:34:00;998.9;;;17.12;47.12
54459;BME280;40368;49.350;8.152;2022-09-17T02:35:01;999;;;17.08;46.98
54459;BME280;40368;49.350;8.152;2022-09-17T02:36:00;999;;;16.99;47.29
54459;BME280;40368;49.350;8.152;2022-09-17T02:37:00;999;;;16.87;47.64
54459;BME280;40368;49.350;8.152;2022-09-17T02:38:00;999;;;16.78;47.95
54459;BME280;40368;49.350;8.152;2022-09-17T02:39:02;999;;;16.75;48.19
54459;BME280;40368;49.350;8.152;2022-09-17T02:40:00;999;;;16.76;47.73
54459;BME280;40368;49.350;8.152;2022-09-17T02:41:03;999.1;;;16.7;48.16
54459;BME280;40368;49.350;8.152;2022-09-17T02:42:02;999;;;16.74;48.29
54459;BME280;40368;49.350;8.152;2022-09-17T02:43:04;999;;;16.71;47.94
54459;BME280;40368;49.350;8.152;2022-09-17T02:44:03;999;;;16.68;48.22
54459;BME280;40368;49.350;8.152;2022-09-17T02:45:03;998.9;;;16.6;48.43
54459;BME280;40368;49.350;8.152;2022-09-17T02:46:05;998.9;;;16.59;48.58
54459;BME280;40368;49.350;8.152;2022-09-17T02:47:07;998.9;;;16.64;48.42
54459;BME280;40368;49.350;8.152;2022-09-17T02:48:03;998.9;;;16.59;48.54
54459;BME280;40368;49.350;8.152;2022-09-17T02:49:06;998.9;;;16.62;48.39
54459;BME280;40368;49.350;8.152;2022-09-17T02:50:03;998.9;;;16.61;48.4
54459;BME280;40368;49.350;8.152;2022-09-17T02:51:04;998.9;;;16.54;48.3
54459;BME280;40368;49.350;8.152;2022-09-17T02:52:03;998.9;;;16.46;48.41
54459;BME280;40368;49.350;8.152;2022-09-17T02:53:06;998.8;;;16.49;48.69
54459;BME280;40368;49.350;8.152;2022-09-17T02:54:04;998.8;;;16.53;48.55
54459;BME280;40368;49.350;8.152;2022-09-17T02:55:02;998.8;;;16.56;48.76
54459;BME280;40368;49.350;8.152;2022-09-17T02:56:02;998.9;;;16.61;48.4
54459;BME280;40368;49.350;8.152;2022-09-17T02:57:04;998.8;;;16.6;48.8
54459;BME280;40368;49.350;8.152;2022-09-17T02:58:03;998.9;;;16.57;48.69
54459;BME280;40368;49.350;8.152;2022-09-17T02:59:03;998.8;;;16.45;48.5
54459;BME280;40368;49.350;8.152;2022-09-17T03:00:03;998.8;;;16.41;48.9
54459;BME280;40368;49.350;8.152;2022-09-17T03:01:02;998.8;;;16.33;48.96
54459;BME280;40368;49.350;8.152;2022-09-17T03:02:01;998.8;;;16.32;49.04
54459;BME280;40368;49.350;8.152;2022-09-17T03:03:01;998.7;;;16.32;49.06
54459;BME280;40368;49.350;8.152;2022-09-17T03:04:01;998.7;;;16.34;49.32
54459;BME280;40368;49.350;8.152;2022-09-17T03:05:00;998.8;;;16.34;49.04
54459;BME280;40368;49.350;8.152;2022-09-17T03:06:00;998.7;;;16.26;49.07
54459;BME280;40368;49.350;8.152;2022-09-17T03:07:03;998.8;;;16.27;49.17
54459;BME280;40368;49.350;8.152;2022-09-17T03:08:00;998.7;;;16.24;49.21
54459;BME280;40368;49.350;8.152;2022-09-17T03:09:00;998.8;;;16.2;49.69
54459;BME280;40368;49.350;8.152;2022-09-17T03:10:00;998.8;;;16.21;49.66
54459;BME280;40368;49.350;8.152;2022-09-17T03:11:01;998.8;;;16.34;49.39
54459;BME280;40368;49.350;8.152;2022-09-17T03:12:00;998.8;;;16.37;49.01
54459;BME280;40368;49.350;8.152;2022-09-17T03:13:00;998.8;;;16.39;49.03
54459;BME280;40368;49.350;8.152;2022-09-17T03:14:00;998.9;;;16.37;48.91
54459;BME280;40368;49.350;8.152;2022-09-17T03:15:00;998.8;;;16.31;49.15
54459;BME280;40368;49.350;8.152;2022-09-17T03:16:01;998.9;;;16.28;49.5
54459;BME280;40368;49.350;8.152;2022-09-17T03:17:01;998.9;;;16.27;49.01
54459;BME280;40368;49.350;8.152;2022-09-17T03:18:00;998.8;;;16.19;49.28
54459;BME280;40368;49.350;8.152;2022-09-17T03:19:00;998.8;;;16.14;49.43
54459;BME280;40368;49.350;8.152;2022-09-17T03:20:00;998.8;;;16.18;49.95
54459;BME280;40368;49.350;8.152;2022-09-17T03:21:00;998.8;;;16.23;49.23
54459;BME280;40368;49.350;8.152;2022-09-17T03:22:00;998.9;;;16.26;49.14
54459;BME280;40368;49.350;8.152;2022-09-17T03:23:00;998.8;;;16.19;49.22
54459;BME280;40368;49.350;8.152;2022-09-17T03:24:00;998.8;;;16.1;49.5
54459;BME280;40368;49.350;8.152;2022-09-17T03:25:00;998.8;;;16.09;49.89
54459;BME280;40368;49.350;8.152;2022-09-17T03:26:00;998.8;;;16.12;49.77
54459;BME280;40368;49.350;8.152;2022-09-17T03:27:00;998.8;;;16.09;49.58
54459;BME280;40368;49.350;8.152;2022-09-17T03:28:07;998.7;;;16.08;49.53
54459;BME280;40368;49.350;8.152;2022-09-17T03:29:00;998.8;;;16.04;49.72
54459;BME280;40368;49.350;8.152;2022-09-17T03:30:01;998.8;;;15.98;49.91
54459;BME280;40368;49.350;8.152;2022-09-17T03:31:00;998.8;;;15.98;50.02
54459;BME280;40368;49.350;8.152;2022-09-17T03:32:01;998.8;;;16;50.08
54459;BME280;40368;49.350;8.152;2022-09-17T03:33:00;998.8;;;15.99;49.82
54459;BME280;40368;49.350;8.152;2022-09-17T03:34:00;998.8;;;15.97;49.87
54459;BME280;40368;49.350;8.152;2022-09-17T03:35:00;998.7;;;15.99;49.92
54459;BME280;40368;49.350;8.152;2022-09-17T03:36:01;998.7;;;15.99;50.32
54459;BME280;40368;49.350;8.152;2022-09-17T03:37:00;998.8;;;16.04;50.02
54459;BME280;40368;49.350;8.152;2022-09-17T03:38:00;998.7;;;16.04;49.61
54459;BME280;40368;49.350;8.152;2022-09-17T03:39:00;998.8;;;16.06;49.6
54459;BME280;40368;49.350;8.152;2022-09-17T03:40:01;998.9;;;16.04;49.73
54459;BME280;40368;49.350;8.152;2022-09-17T03:41:01;998.9;;;16.02;49.76
54459;BME280;40368;49.350;8.152;2022-09-17T03:42:00;998.8;;;16.01;49.84
54459;BME280;40368;49.350;8.152;2022-09-17T03:43:00;998.8;;;16.1;49.77
54459;BME280;40368;49.350;8.152;2022-09-17T03:44:01;998.9;;;16.16;49.8
54459;BME280;40368;49.350;8.152;2022-09-17T03:45:00;998.8;;;16.24;49.31
54459;BME280;40368;49.350;8.152;2022-09-17T03:46:00;998.9;;;16.2;49.25
54459;BME280;40368;49.350;8.152;2022-09-17T03:47:00;998.9;;;16.19;49.62
54459;BME280;40368;49.350;8.152;2022-09-17T03:48:01;998.9;;;16.2;49.2
54459;BME280;40368;49.350;8.152;2022-09-17T03:49:00;998.9;;;16.12;49.48
54459;BME280;40368;49.350;8.152;2022-09-17T03:50:00;998.9;;;16.06;49.53
54459;BME280;40368;49.350;8.152;2022-09-17T03:51:00;998.8;;;16.06;49.77
54459;BME280;40368;49.350;8.152;2022-09-17T03:52:00;998.9;;;16.08;49.46
54459;BME280;40368;49.350;8.152;2022-09-17T03:53:00;998.9;;;16.03;49.7
54459;BME280;40368;49.350;8.152;2022-09-17T03:54:02;998.8;;;15.96;49.95
54459;BME280;40368;49.350;8.152;2022-09-17T03:55:00;998.9;;;16.02;49.91
54459;BME280;40368;49.350;8.152;2022-09-17T03:56:01;998.9;;;16.08;49.8
54459;BME280;40368;49.350;8.152;2022-09-17T03:57:00;998.8;;;16.11;49.54
54459;BME280;40368;49.350;8.152;2022-09-17T03:58:00;998.9;;;16.08;49.34
54459;BME280;40368;49.350;8.152;2022-09-17T03:59:00;998.8;;;16.09;49.76
54459;BME280;40368;49.350;8.152;2022-09-17T04:00:00;998.8;;;16.06;49.65
54459;BME280;40368;49.350;8.152;2022-09-17T04:01:00;998.8;;;16;49.71
54459;BME280;40368;49.350;8.152;2022-09-17T04:02:00;998.8;;;16;49.92
54459;BME280;40368;49.350;8.152;2022-09-17T04:03:00;998.7;;;15.96;49.87
54459;BME280;40368;49.350;8.152;2022-09-17T04:04:01;998.8;;;15.96;49.99
54459;BME280;40368;49.350;8.152;2022-09-17T04:05:00;998.8;;;15.93;49.76
54459;BME280;40368;49.350;8.152;2022-09-17T04:06:00;998.8;;;15.94;50.08
54459;BME280;40368;49.350;8.152;2022-09-17T04:07:00;998.7;;;15.97;49.96
54459;BME280;40368;49.350;8.152;2022-09-17T04:08:01;998.8;;;15.92;49.83
54459;BME280;40368;49.350;8.152;2022-09-17T04:09:00;998.9;;;15.85;49.96
54459;BME280;40368;49.350;8.152;2022-09-17T04:10:00;998.8;;;15.79;50.2
54459;BME280;40368;49.350;8.152;2022-09-17T04:11:00;998.9;;;15.82;50.11
54459;BME280;40368;49.350;8.152;2022-09-17T04:12:01;998.8;;;15.85;50.2
54459;BME280;40368;49.350;8.152;2022-09-17T04:13:00;998.8;;;15.89;49.8
54459;BME280;40368;49.350;8.152;2022-09-17T04:14:00;998.8;;;15.9;49.82
54459;BME280;40368;49.350;8.152;2022-09-17T04:15:00;998.8;;;15.88;49.78
54459;BME280;40368;49.350;8.152;2022-09-17T04:16:01;998.8;;;15.89;50.08
54459;BME280;40368;49.350;8.152;2022-09-17T04:17:00;998.8;;;15.87;50.15
54459;BME280;40368;49.350;8.152;2022-09-17T04:18:00;998.8;;;15.9;49.79
54459;BME280;40368;49.350;8.152;2022-09-17T04:19:00;998.7;;;15.87;49.79
54459;BME280;40368;49.350;8.152;2022-09-17T04:20:01;998.8;;;15.79;49.93
54459;BME280;40368;49.350;8.152;2022-09-17T04:21:00;998.9;;;15.72;50.53
54459;BME280;40368;49.350;8.152;2022-09-17T04:22:00;998.8;;;15.68;50.3
54459;BME280;40368;49.350;8.152;2022-09-17T04:23:00;998.8;;;15.59;50.58
54459;BME280;40368;49.350;8.152;2022-09-17T04:24:01;998.8;;;15.57;50.56
54459;BME280;40368;49.350;8.152;2022-09-17T04:25:01;998.8;;;15.59;50.47
54459;BME280;40368;49.350;8.152;2022-09-17T04:26:00;998.8;;;15.59;50.5
54459;BME280;40368;49.350;8.152;2022-09-17T04:27:00;998.8;;;15.64;50.65
54459;BME280;40368;49.350;8.152;2022-09-17T04:27:54;998.7;;;15.7;50.35
54459;BME280;40368;49.350;8.152;2022-09-17T04:29:01;998.7;;;15.74;50.23
54459;BME280;40368;49.350;8.152;2022-09-17T04:30:00;998.8;;;15.81;50.19
54459;BME280;40368;49.350;8.152;2022-09-17T04:31:00;998.8;;;15.82;49.9
54459;BME280;40368;49.350;8.152;2022-09-17T04:32:01;998.9;;;15.77;49.99
54459;BME280;40368;49.350;8.152;2022-09-17T04:33:00;998.9;;;15.76;49.99
54459;BME280;40368;49.350;8.152;2022-09-17T04:34:00;998.9;;;15.72;50.27
54459;BME280;40368;49.350;8.152;2022-09-17T04:35:00;998.9;;;15.67;50.06
54459;BME280;40368;49.350;8.152;2022-09-17T04:36:01;998.9;;;15.59;50.53
54459;BME280;40368;49.350;8.152;2022-09-17T04:37:00;998.9;;;15.64;50.42
54459;BME280;40368;49.350;8.152;2022-09-17T04:38:01;998.8;;;15.65;50.64
54459;BME280;40368;49.350;8.152;2022-09-17T04:39:00;998.9;;;15.72;50.28
54459;BME280;40368;49.350;8.152;2022-09-17T04:40:01;998.9;;;15.76;50.43
54459;BME280;40368;49.350;8.152;2022-09-17T04:41:00;998.9;;;15.81;49.95
54459;BME280;40368;49.350;8.152;2022-09-17T04:42:00;999;;;15.79;49.92
54459;BME280;40368;49.350;8.152;2022-09-17T04:43:00;998.9;;;15.79;50.15
54459;BME280;40368;49.350;8.152;2022-09-17T04:44:01;998.9;;;15.81;49.91
54459;BME280;40368;49.350;8.152;2022-09-17T04:45:00;998.9;;;15.85;50.17
54459;BME280;40368;49.350;8.152;2022-09-17T04:46:00;999.1;;;15.94;49.66
54459;BME280;40368;49.350;8.152;2022-09-17T04:47:00;999;;;16;49.49
54459;BME280;40368;49.350;8.152;2022-09-17T04:48:01;999;;;15.96;49.64
54459;BME280;40368;49.350;8.152;2022-09-17T04:49:00;999;;;15.94;49.56
54459;BME280;40368;49.350;8.152;2022-09-17T04:50:00;999.1;;;15.9;49.58
54459;BME280;40368;49.350;8.152;2022-09-17T04:51:00;999;;;15.88;49.84
54459;BME280;40368;49.350;8.152;2022-09-17T04:52:01;999.1;;;15.88;49.66
54459;BME280;40368;49.350;8.152;2022-09-17T04:53:00;999.1;;;15.82;49.93
54459;BME280;40368;49.350;8.152;2022-09-17T04:54:00;999.2;;;15.78;50.21
54459;BME280;40368;49.350;8.152;2022-09-17T04:55:00;999.1;;;15.76;50.09
54459;BME280;40368;49.350;8.152;2022-09-17T04:56:01;999.1;;;15.77;50.16
54459;BME280;40368;49.350;8.152;2022-09-17T04:57:00;999.1;;;15.79;50.2
54459;BME280;40368;49.350;8.152;2022-09-17T04:58:00;999.2;;;15.87;49.93
54459;BME280;40368;49.350;8.152;2022-09-17T04:59:00;999.2;;;15.88;49.95
54459;BME280;40368;49.350;8.152;2022-09-17T05:00:01;999;;;15.82;50.27
54459;BME280;40368;49.350;8.152;2022-09-17T05:01:00;999;;;15.81;50.39
54459;BME280;40368;49.350;8.152;2022-09-17T05:02:00;999.1;;;15.9;50.09
54459;BME280;40368;49.350;8.152;2022-09-17T05:03:00;998.9;;;15.95;49.92
54459;BME280;40368;49.350;8.152;2022-09-17T05:04:00;999;;;15.99;49.84
54459;BME280;40368;49.350;8.152;2022-09-17T05:05:01;999;;;15.96;49.71
54459;BME280;40368;49.350;8.152;2022-09-17T05:06:00;999;;;15.9;50.18
54459;BME280;40368;49.350;8.152;2022-09-17T05:07:00;999.1;;;15.88;49.98
54459;BME280;40368;49.350;8.152;2022-09-17T05:08:01;999;;;15.91;50.16
54459;BME280;40368;49.350;8.152;2022-09-17T05:09:00;999.1;;;15.95;50.03
54459;BME280;40368;49.350;8.152;2022-09-17T05:10:00;999;;;15.95;49.87
54459;BME280;40368;49.350;8.152;2022-09-17T05:11:00;999.1;;;15.94;50.25
54459;BME280;40368;49.350;8.152;2022-09-17T05:12:01;999.1;;;15.94;50.31
54459;BME280;40368;49.350;8.152;2022-09-17T05:13:00;999.2;;;16.02;50.12
54459;BME280;40368;49.350;8.152;2022-09-17T05:14:00;999.1;;;15.98;50.09
54459;BME280;40368;49.350;8.152;2022-09-17T05:15:00;999;;;15.95;50.17
54459;BME280;40368;49.350;8.152;2022-09-17T05:16:01;999.1;;;15.96;50.17
54459;BME280;40368;49.350;8.152;2022-09-17T05:17:00;999.1;;;15.98;50.08
54459;BME280;40368;49.350;8.152;2022-09-17T05:18:00;999.1;;;16.03;50.1
54459;BME280;40368;49.350;8.152;2022-09-17T05:19:00;999.2;;;16.14;49.89
54459;BME280;40368;49.350;8.152;2022-09-17T05:20:02;999.2;;;16.08;49.88
54459;BME280;40368;49.350;8.152;2022-09-17T05:21:00;999.2;;;16.08;50.04
54459;BME280;40368;49.350;8.152;2022-09-17T05:22:00;999.2;;;16.11;49.92
54459;BME280;40368;49.350;8.152;2022-09-17T05:23:00;999.2;;;16.09;50.06
54459;BME280;40368;49.350;8.152;2022-09-17T05:24:01;999.2;;;16.15;49.9
54459;BME280;40368;49.350;8.152;2022-09-17T05:25:00;999.2;;;16.12;49.72
54459;BME280;40368;49.350;8.152;2022-09-17T05:26:00;999.3;;;16.12;50.13
54459;BME280;40368;49.350;8.152;2022-09-17T05:27:00;999.2;;;16.19;49.86
54459;BME280;40368;49.350;8.152;2022-09-17T05:28:01;999.3;;;16.26;49.68
54459;BME280;40368;49.350;8.152;2022-09-17T05:29:00;999.3;;;16.21;49.66
54459;BME280;40368;49.350;8.152;2022-09-17T05:30:00;999.4;;;16.18;49.76
54459;BME280;40368;49.350;8.152;2022-09-17T05:31:01;999.2;;;16.14;49.74
54459;BME280;40368;49.350;8.152;2022-09-17T05:32:00;999.3;;;16.12;50.01
54459;BME280;40368;49.350;8.152;2022-09-17T05:33:01;999.3;;;16.16;49.86